createdAt,value
2023-02-13T00:02:23.080Z,6.97
2023-02-13T00:05:26.677Z,7.13
2023-02-13T00:08:30.190Z,7.05
2023-02-13T00:11:35.556Z,6.50
2023-02-13T00:14:39.734Z,6.78
2023-02-13T00:17:44.769Z,6.63
2023-02-13T00:20:48.199Z,7.63
2023-02-13T00:23:52.522Z,7.18
2023-02-13T00:26:57.304Z,7.80
2023-02-13T00:30:01.105Z,6.53
2023-02-13T00:33:08.612Z,7.03
2023-02-13T00:36:13.074Z,7.20
2023-02-13T00:39:17.505Z,6.68
2023-02-13T00:42:23.988Z,6.90
2023-02-13T00:45:27.664Z,7.90
2023-02-13T00:48:35.229Z,6.93
2023-02-13T00:51:40.539Z,6.15
2023-02-13T00:54:45.160Z,6.65
2023-02-13T00:57:51.899Z,7.07
2023-02-13T01:00:56.375Z,7.90
2023-02-13T01:04:02.742Z,6.22
2023-02-13T01:07:07.060Z,7.05
2023-02-13T01:10:11.882Z,7.25
2023-02-13T01:13:16.108Z,7.43
2023-02-13T01:16:20.634Z,6.70
2023-02-13T01:19:27.512Z,6.40
2023-02-13T01:22:33.181Z,6.05
2023-02-13T01:25:36.689Z,6.22
2023-02-13T01:28:40.289Z,6.80
2023-02-13T01:31:44.642Z,7.18
2023-02-13T01:34:49.859Z,7.95
2023-02-13T01:37:53.614Z,6.53
2023-02-13T01:40:57.510Z,7.57
2023-02-13T01:44:02.080Z,8.20
2023-02-13T01:47:05.681Z,6.63
2023-02-13T01:50:14.530Z,7.93
2023-02-13T01:53:20.585Z,8.07
2023-02-13T01:56:27.327Z,7.72
2023-02-13T01:59:34.138Z,7.35
2023-02-13T02:02:39.390Z,7.38
2023-02-13T02:05:44.697Z,8.60
2023-02-13T02:08:48.405Z,7.65
2023-02-13T02:11:59.146Z,8.25
2023-02-13T02:15:04.017Z,8.45
2023-02-13T02:18:14.992Z,8.63
2023-02-13T02:21:37.362Z,7.55
2023-02-13T02:25:04.162Z,8.07
2023-02-13T02:28:17.952Z,7.88
2023-02-13T02:31:38.836Z,8.05
2023-02-13T02:34:47.706Z,7.85
2023-02-13T02:37:56.116Z,7.75
2023-02-13T02:41:07.273Z,8.05
2023-02-13T02:44:20.204Z,8.20
2023-02-13T02:47:50.498Z,7.88
2023-02-13T02:50:55.804Z,7.75
2023-02-13T02:54:25.549Z,8.18
2023-02-13T02:57:47.148Z,7.45
2023-02-13T03:01:09.810Z,7.55
2023-02-13T03:04:35.529Z,8.10
2023-02-13T03:07:40.008Z,6.72
2023-02-13T03:11:01.399Z,7.68
2023-02-13T03:14:08.880Z,8.10
2023-02-13T03:17:31.120Z,7.53
2023-02-13T03:21:10.817Z,9.05
2023-02-13T03:24:19.392Z,7.63
2023-02-13T03:27:43.144Z,8.02
2023-02-13T03:30:54.824Z,8.18
2023-02-13T03:34:00.618Z,7.70
2023-02-13T03:37:25.730Z,7.55
2023-02-13T03:40:32.353Z,7.63
2023-02-13T03:43:38.290Z,7.82
2023-02-13T03:46:43.630Z,7.82
2023-02-13T03:50:06.894Z,8.20
2023-02-13T03:53:13.346Z,7.30
2023-02-13T03:56:37.240Z,7.75
2023-02-13T03:59:41.105Z,7.97
2023-02-13T04:02:50.003Z,8.50
2023-02-13T04:05:56.520Z,8.35
2023-02-13T04:09:02.097Z,8.35
2023-02-13T04:12:11.303Z,7.90
2023-02-13T04:15:17.971Z,7.20
2023-02-13T04:18:23.985Z,7.18
2023-02-13T04:21:27.501Z,7.43
2023-02-13T04:24:33.305Z,7.10
2023-02-13T04:27:37.868Z,6.57
2023-02-13T04:30:42.217Z,6.90
2023-02-13T04:33:46.740Z,6.20
2023-02-13T04:36:54.099Z,6.72
2023-02-13T04:39:59.353Z,6.65
2023-02-13T04:43:02.992Z,6.32
2023-02-13T04:46:06.669Z,6.90
2023-02-13T04:49:11.649Z,7.05
2023-02-13T04:52:16.534Z,6.78
2023-02-13T04:55:22.081Z,6.93
2023-02-13T04:58:25.479Z,6.57
2023-02-13T05:01:29.016Z,6.38
2023-02-13T05:04:32.650Z,6.90
2023-02-13T05:07:36.224Z,5.45
2023-02-13T05:11:59.121Z,6.32
2023-02-13T05:20:16.314Z,6.22
2023-02-13T05:23:55.652Z,6.72
2023-02-13T05:26:59.362Z,6.28
2023-02-13T05:30:03.074Z,5.63
2023-02-13T05:33:06.573Z,6.55
2023-02-13T05:36:12.096Z,6.55
2023-02-13T05:39:16.066Z,6.07
2023-02-13T05:42:19.505Z,6.30
2023-02-13T05:45:22.768Z,6.43
2023-02-13T05:48:26.106Z,6.35
2023-02-13T05:51:30.830Z,6.28
2023-02-13T05:54:34.330Z,5.53
2023-02-13T05:57:37.708Z,7.00
2023-02-13T06:00:41.741Z,5.80
2023-02-13T06:03:45.818Z,6.03
2023-02-13T06:06:50.577Z,6.20
2023-02-13T06:09:53.851Z,5.80
2023-02-13T06:12:58.140Z,6.00
2023-02-13T06:16:01.487Z,6.45
2023-02-13T06:19:04.914Z,5.82
2023-02-13T06:22:10.138Z,6.03
2023-02-13T06:25:13.831Z,6.03
2023-02-13T06:28:17.324Z,5.70
2023-02-13T06:31:20.961Z,5.15
2023-02-13T06:34:24.449Z,5.78
2023-02-13T06:37:29.198Z,5.35
2023-02-13T06:40:32.456Z,5.15
2023-02-13T06:43:35.779Z,5.60
2023-02-13T06:46:39.253Z,4.35
2023-02-13T06:49:42.567Z,5.15
2023-02-13T06:52:51.380Z,4.78
2023-02-13T06:55:54.803Z,4.93
2023-02-13T06:58:59.696Z,5.28
2023-02-13T07:02:03.039Z,4.65
2023-02-13T07:05:06.415Z,4.72
2023-02-13T07:08:11.605Z,5.22
2023-02-13T07:11:18.807Z,5.05
2023-02-13T07:14:22.286Z,4.75
2023-02-13T07:17:26.642Z,5.20
2023-02-13T07:20:30.285Z,5.68
2023-02-13T07:23:35.070Z,5.47
2023-02-13T07:26:38.755Z,5.10
2023-02-13T07:29:42.029Z,5.50
2023-02-13T07:32:48.193Z,5.55
2023-02-13T07:35:54.341Z,5.43
2023-02-13T07:38:59.178Z,5.25
2023-02-13T07:42:02.867Z,5.65
2023-02-13T07:45:07.634Z,6.25
2023-02-13T07:48:10.971Z,6.15
2023-02-13T07:51:14.580Z,6.05
2023-02-13T07:54:20.565Z,5.78
2023-02-13T07:57:24.140Z,5.78
2023-02-13T08:01:22.895Z,5.45
2023-02-13T08:04:26.548Z,5.63
2023-02-13T08:07:29.867Z,6.20
2023-02-13T08:10:52.490Z,6.50
2023-02-13T08:13:56.151Z,6.82
2023-02-13T08:17:00.456Z,6.50
2023-02-13T08:20:03.916Z,5.78
2023-02-13T08:23:09.522Z,5.45
2023-02-13T08:26:17.907Z,6.03
2023-02-13T08:29:25.371Z,5.40
2023-02-13T08:32:29.976Z,6.47
2023-02-13T08:35:41.208Z,5.30
2023-02-13T08:38:44.621Z,5.57
2023-02-13T08:41:49.636Z,5.38
2023-02-13T08:44:53.438Z,6.32
2023-02-13T08:47:58.341Z,4.80
2023-02-13T08:51:04.784Z,4.63
2023-02-13T08:54:08.450Z,5.72
2023-02-13T08:57:14.058Z,5.57
2023-02-13T09:00:20.608Z,8.40
2023-02-13T09:03:24.020Z,9.85
2023-02-13T09:06:27.544Z,8.88
2023-02-13T09:09:31.964Z,7.63
2023-02-13T09:12:39.118Z,5.95
2023-02-13T09:15:42.963Z,5.70
2023-02-13T09:18:48.890Z,6.30
2023-02-13T09:21:52.545Z,9.70
2023-02-13T09:24:56.090Z,21.25
2023-02-13T09:28:04.053Z,13.65
2023-02-13T09:31:08.161Z,10.85
2023-02-13T09:34:11.851Z,8.80
2023-02-13T09:37:19.114Z,7.55
2023-02-13T09:40:25.235Z,6.25
2023-02-13T09:43:32.161Z,6.65
2023-02-13T09:46:38.227Z,6.15
2023-02-13T09:49:43.719Z,7.78
2023-02-13T09:52:49.664Z,6.78
2023-02-13T09:55:58.764Z,7.47
2023-02-13T09:59:10.979Z,5.97
2023-02-13T10:02:24.415Z,5.40
2023-02-13T10:05:39.495Z,5.75
2023-02-13T10:08:57.265Z,5.35
2023-02-13T10:12:15.216Z,5.43
2023-02-13T10:15:24.767Z,4.80
2023-02-13T10:57:46.186Z,6.03
2023-02-13T11:00:57.687Z,5.63
2023-02-13T11:04:03.683Z,5.30
2023-02-13T11:07:13.219Z,5.40
2023-02-13T11:10:19.217Z,5.60
2023-02-13T11:13:24.854Z,6.03
2023-02-13T11:16:28.403Z,5.82
2023-02-13T11:19:33.533Z,5.45
2023-02-13T11:22:37.856Z,5.80
2023-02-13T11:25:41.322Z,5.25
2023-02-13T11:28:51.849Z,5.22
2023-02-13T11:32:06.663Z,5.18
2023-02-13T11:35:28.713Z,5.18
2023-02-13T11:38:32.205Z,5.38
2023-02-13T11:41:40.222Z,5.53
2023-02-13T11:44:46.445Z,6.25
2023-02-13T11:47:50.225Z,5.38
2023-02-13T11:50:56.259Z,5.20
2023-02-13T11:54:01.133Z,6.55
2023-02-13T11:57:06.450Z,5.80
2023-02-13T12:00:27.681Z,5.28
2023-02-13T12:03:33.810Z,6.07
2023-02-13T12:06:41.417Z,5.60
2023-02-13T12:09:45.950Z,5.38
2023-02-13T12:12:54.580Z,6.13
2023-02-13T12:16:01.350Z,5.88
2023-02-13T12:19:07.977Z,6.57
2023-02-13T12:22:16.448Z,7.18
2023-02-13T12:25:23.590Z,7.15
2023-02-13T12:28:32.755Z,6.85
2023-02-13T12:31:54.354Z,7.80
2023-02-13T12:35:09.831Z,7.40
2023-02-13T12:38:20.212Z,8.07
2023-02-13T12:41:25.612Z,7.32
2023-02-13T12:44:36.709Z,7.00
2023-02-13T12:47:44.046Z,7.43
2023-02-13T12:50:58.958Z,8.10
2023-02-13T12:54:22.238Z,7.70
2023-02-13T12:57:32.411Z,7.22
2023-02-13T13:00:40.683Z,7.47
2023-02-13T13:03:48.531Z,7.35
2023-02-13T13:07:11.184Z,7.63
2023-02-13T13:10:34.854Z,7.47
2023-02-13T13:13:43.465Z,7.28
2023-02-13T13:16:52.349Z,7.07
2023-02-13T13:20:04.491Z,7.32
2023-02-13T13:23:13.196Z,6.90
2023-02-13T13:26:23.312Z,8.10
2023-02-13T13:29:29.281Z,7.85
2023-02-13T13:32:34.300Z,7.85
2023-02-13T13:35:40.505Z,7.82
2023-02-13T13:38:53.454Z,7.88
2023-02-13T13:42:02.775Z,8.43
2023-02-13T13:45:10.801Z,7.20
2023-02-13T13:48:33.577Z,7.43
2023-02-13T13:51:37.041Z,8.10
2023-02-13T13:54:42.324Z,8.95
2023-02-13T13:58:09.805Z,7.45
2023-02-13T14:01:18.041Z,8.27
2023-02-13T14:04:41.568Z,7.18
2023-02-13T14:07:45.014Z,8.88
2023-02-13T14:11:09.434Z,8.32
2023-02-13T14:14:43.076Z,9.02
2023-02-13T14:17:58.674Z,8.40
2023-02-13T14:21:03.425Z,7.95
2023-02-13T14:24:15.018Z,8.18
2023-02-13T14:27:23.652Z,7.38
2023-02-13T14:30:30.591Z,9.43
2023-02-13T14:33:35.522Z,8.18
2023-02-13T14:36:42.397Z,8.75
2023-02-13T14:39:56.990Z,7.03
2023-02-13T14:43:01.929Z,8.55
2023-02-13T14:46:21.727Z,7.93
2023-02-13T14:49:28.160Z,7.97
2023-02-13T14:52:35.202Z,7.68
2023-02-13T14:55:41.654Z,7.47
2023-02-13T14:58:48.157Z,7.60
2023-02-13T15:01:53.196Z,7.95
2023-02-13T15:05:01.885Z,7.53
2023-02-13T15:08:08.629Z,7.25
2023-02-13T15:11:35.310Z,7.20
2023-02-13T15:14:38.948Z,6.53
2023-02-13T15:17:42.533Z,7.88
2023-02-13T15:20:48.056Z,8.13
2023-02-13T15:23:52.431Z,7.53
2023-02-13T15:26:57.520Z,7.78
2023-02-13T15:30:03.474Z,8.82
2023-02-13T15:33:20.901Z,8.27
2023-02-13T15:36:26.614Z,8.50
2023-02-13T15:39:34.562Z,8.05
2023-02-13T15:42:39.528Z,8.30
2023-02-13T15:45:45.315Z,7.75
2023-02-13T15:48:49.249Z,8.30
2023-02-13T15:52:03.237Z,8.38
2023-02-13T15:55:06.897Z,7.90
2023-02-13T15:58:12.557Z,9.05
2023-02-13T16:01:16.548Z,7.88
2023-02-13T16:04:21.293Z,8.93
2023-02-13T16:07:26.253Z,9.18
2023-02-13T16:10:31.301Z,8.32
2023-02-13T16:13:34.798Z,7.80
2023-02-13T16:16:44.971Z,8.95
2023-02-13T16:19:54.285Z,8.68
2023-02-13T16:23:00.201Z,8.52
2023-02-13T16:26:05.719Z,8.80
2023-02-13T16:29:12.558Z,8.85
2023-02-13T16:32:20.576Z,9.25
2023-02-13T16:35:29.320Z,10.32
2023-02-13T16:38:36.098Z,9.82
2023-02-13T16:41:39.505Z,10.02
2023-02-13T16:44:43.240Z,9.60
2023-02-13T16:47:46.695Z,7.70
2023-02-13T16:50:57.031Z,9.82
2023-02-13T16:54:04.703Z,9.43
2023-02-13T16:57:19.337Z,10.13
2023-02-13T17:00:25.565Z,9.57
2023-02-13T17:03:29.283Z,11.00
2023-02-13T17:06:32.731Z,9.13
2023-02-13T17:09:37.534Z,9.52
2023-02-13T17:12:41.252Z,10.35
2023-02-13T17:15:45.458Z,9.88
2023-02-13T17:18:49.077Z,8.63
2023-02-13T17:21:54.573Z,9.13
2023-02-13T17:24:59.303Z,8.95
2023-02-13T17:28:03.977Z,9.40
2023-02-13T17:31:11.740Z,8.80
2023-02-13T17:34:15.178Z,9.00
2023-02-13T17:37:20.315Z,9.73
2023-02-13T17:40:29.456Z,9.07
2023-02-13T17:43:36.439Z,10.63
2023-02-13T17:47:07.384Z,9.38
2023-02-13T17:59:11.350Z,10.27
2023-02-13T18:02:38.739Z,9.75
2023-02-13T18:05:50.683Z,8.90
2023-02-13T18:09:13.839Z,10.25
2023-02-13T18:12:28.468Z,9.43
2023-02-13T18:15:46.964Z,9.70
2023-02-13T18:19:05.903Z,8.45
2023-02-13T18:22:23.273Z,9.88
2023-02-13T18:25:26.914Z,11.25
2023-02-13T18:28:50.775Z,8.18
2023-02-13T18:32:10.375Z,9.75
2023-02-13T19:20:41.152Z,8.70
2023-02-13T19:23:44.504Z,9.07
2023-02-13T19:27:25.827Z,8.93
2023-02-13T19:30:29.911Z,9.15
2023-02-13T19:33:33.181Z,9.88
2023-02-13T19:36:37.694Z,10.43
2023-02-13T19:40:06.463Z,9.68
2023-02-13T19:43:10.542Z,8.70
2023-02-13T19:46:13.950Z,10.45
2023-02-13T19:49:18.850Z,10.00
2023-02-13T19:52:24.552Z,9.63
2023-02-13T19:55:27.787Z,10.18
2023-02-13T20:01:59.988Z,9.88
2023-02-13T20:05:32.350Z,10.57
2023-02-13T20:08:37.199Z,9.10
2023-02-13T20:11:41.215Z,10.70
2023-02-13T20:14:44.612Z,10.10
2023-02-13T20:17:54.380Z,9.60
2023-02-13T20:20:57.944Z,9.85
2023-02-13T20:24:03.048Z,9.35
2023-02-13T20:27:10.576Z,9.60
2023-02-13T20:30:16.168Z,9.80
2023-02-13T20:33:19.582Z,10.52
2023-02-13T20:41:46.427Z,11.60
2023-02-13T20:45:54.362Z,10.75
2023-02-13T20:49:21.758Z,10.02
2023-02-13T20:52:26.380Z,9.98
2023-02-13T20:55:30.484Z,9.45
2023-02-13T21:04:14.825Z,9.65
2023-02-13T21:07:18.962Z,10.25
2023-02-13T21:10:25.126Z,9.63
2023-02-13T21:14:06.142Z,10.73
2023-02-13T21:17:10.431Z,9.95
2023-02-13T21:21:09.569Z,10.45
2023-02-13T21:33:55.757Z,9.65
2023-02-13T21:37:13.544Z,11.25
2023-02-13T21:40:25.725Z,10.05
2023-02-13T21:47:30.550Z,11.90
2023-02-13T21:54:22.342Z,11.50
2023-02-13T21:57:55.018Z,12.40
2023-02-13T22:21:05.290Z,10.98
2023-02-13T22:24:46.472Z,11.65
2023-02-13T22:27:50.503Z,13.05
2023-02-13T22:30:54.706Z,11.57
2023-02-13T22:34:03.950Z,11.52
2023-02-13T22:37:09.490Z,12.55
2023-02-13T22:40:13.879Z,12.35
2023-02-13T22:43:21.174Z,11.70
2023-02-13T22:46:29.592Z,10.82
2023-02-13T22:49:35.853Z,12.00
2023-02-13T22:52:44.865Z,12.55
2023-02-13T22:55:48.409Z,11.35
2023-02-13T22:58:52.881Z,11.40
2023-02-13T23:01:56.413Z,11.38
2023-02-13T23:05:01.857Z,11.70
2023-02-13T23:08:07.070Z,11.60
2023-02-13T23:11:31.133Z,11.25
2023-02-13T23:14:38.109Z,11.27
2023-02-13T23:18:00.439Z,12.07
2023-02-13T23:21:06.131Z,10.50
2023-02-13T23:24:11.807Z,11.07
2023-02-13T23:27:22.122Z,12.05
2023-02-13T23:30:28.607Z,11.35
2023-02-13T23:33:33.078Z,11.90
2023-02-13T23:36:37.360Z,10.88
2023-02-13T23:39:42.501Z,11.75
2023-02-13T23:42:46.423Z,11.77
2023-02-13T23:45:53.850Z,10.93
2023-02-13T23:49:01.909Z,9.98
2023-02-13T23:52:05.443Z,11.73
2023-02-13T23:55:10.483Z,12.60
2023-02-13T23:58:14.279Z,11.18
